sensor_id;sensor_type;location;lat;lon;timestamp;temperature;humidity
18041;DHT22;9145;48.588;9.250;2023-02-15T00:01:23;2.30;99.90
18041;DHT22;9145;48.588;9.250;2023-02-15T00:03:50;2.30;99.90
18041;DHT22;9145;48.588;9.250;2023-02-15T00:06:18;2.20;99.90
18041;DHT22;9145;48.588;9.250;2023-02-15T00:08:45;2.10;99.90
18041;DHT22;9145;48.588;9.250;2023-02-15T00:11:14;2.00;99.90
18041;DHT22;9145;48.588;9.250;2023-02-15T00:13:41;1.90;99.90
18041;DHT22;9145;48.588;9.250;2023-02-15T00:16:09;1.80;99.90
18041;DHT22;9145;48.588;9.250;2023-02-15T00:18:37;1.70;99.90
18041;DHT22;9145;48.588;9.250;2023-02-15T00:21:05;1.70;99.90
18041;DHT22;9145;48.588;9.250;2023-02-15T00:23:34;1.70;99.90
18041;DHT22;9145;48.588;9.250;2023-02-15T00:26:05;1.80;99.90
18041;DHT22;9145;48.588;9.250;2023-02-15T00:28:32;1.80;99.90
18041;DHT22;9145;48.588;9.250;2023-02-15T00:31:04;1.80;99.90
18041;DHT22;9145;48.588;9.250;2023-02-15T00:33:31;1.80;99.90
18041;DHT22;9145;48.588;9.250;2023-02-15T00:35:58;1.90;99.90
18041;DHT22;9145;48.588;9.250;2023-02-15T00:38:26;1.90;99.90
18041;DHT22;9145;48.588;9.250;2023-02-15T00:40:55;1.80;99.90
18041;DHT22;9145;48.588;9.250;2023-02-15T00:43:22;1.70;99.90
18041;DHT22;9145;48.588;9.250;2023-02-15T00:45:49;1.60;99.90
18041;DHT22;9145;48.588;9.250;2023-02-15T00:48:15;1.50;99.90
18041;DHT22;9145;48.588;9.250;2023-02-15T00:50:45;1.50;99.90
18041;DHT22;9145;48.588;9.250;2023-02-15T00:53:12;1.30;99.90
18041;DHT22;9145;48.588;9.250;2023-02-15T00:55:39;1.30;99.90
18041;DHT22;9145;48.588;9.250;2023-02-15T00:58:08;1.30;99.90
18041;DHT22;9145;48.588;9.250;2023-02-15T01:00:35;1.30;99.90
18041;DHT22;9145;48.588;9.250;2023-02-15T01:03:02;1.30;99.90
18041;DHT22;9145;48.588;9.250;2023-02-15T01:05:30;1.40;99.90
18041;DHT22;9145;48.588;9.250;2023-02-15T01:07:58;1.30;99.90
18041;DHT22;9145;48.588;9.250;2023-02-15T01:10:26;1.40;99.90
18041;DHT22;9145;48.588;9.250;2023-02-15T01:12:53;1.30;99.90
18041;DHT22;9145;48.588;9.250;2023-02-15T01:15:22;1.30;99.90
18041;DHT22;9145;48.588;9.250;2023-02-15T01:17:49;1.40;99.90
18041;DHT22;9145;48.588;9.250;2023-02-15T01:20:19;1.50;99.90
18041;DHT22;9145;48.588;9.250;2023-02-15T01:22:46;1.70;99.90
18041;DHT22;9145;48.588;9.250;2023-02-15T01:25:15;1.60;99.90
18041;DHT22;9145;48.588;9.250;2023-02-15T01:27:42;1.60;99.90
18041;DHT22;9145;48.588;9.250;2023-02-15T01:30:09;1.60;99.90
18041;DHT22;9145;48.588;9.250;2023-02-15T01:32:38;1.60;99.90
18041;DHT22;9145;48.588;9.250;2023-02-15T01:35:05;1.50;99.90
18041;DHT22;9145;48.588;9.250;2023-02-15T01:37:33;1.40;99.90
18041;DHT22;9145;48.588;9.250;2023-02-15T01:40:00;1.40;99.90
18041;DHT22;9145;48.588;9.250;2023-02-15T01:42:28;1.40;99.90
18041;DHT22;9145;48.588;9.250;2023-02-15T01:44:57;1.50;99.90
18041;DHT22;9145;48.588;9.250;2023-02-15T01:47:30;1.50;99.90
18041;DHT22;9145;48.588;9.250;2023-02-15T01:50:03;1.40;99.90
18041;DHT22;9145;48.588;9.250;2023-02-15T01:52:34;1.30;99.90
18041;DHT22;9145;48.588;9.250;2023-02-15T01:55:04;1.30;99.90
18041;DHT22;9145;48.588;9.250;2023-02-15T01:57:31;1.30;99.90
18041;DHT22;9145;48.588;9.250;2023-02-15T01:59:59;1.30;99.90
18041;DHT22;9145;48.588;9.250;2023-02-15T02:02:28;1.30;99.90
18041;DHT22;9145;48.588;9.250;2023-02-15T02:05:00;1.20;99.90
18041;DHT22;9145;48.588;9.250;2023-02-15T02:07:32;1.20;99.90
18041;DHT22;9145;48.588;9.250;2023-02-15T02:10:00;1.10;99.90
18041;DHT22;9145;48.588;9.250;2023-02-15T02:12:27;1.10;99.90
18041;DHT22;9145;48.588;9.250;2023-02-15T02:14:55;1.10;99.90
18041;DHT22;9145;48.588;9.250;2023-02-15T02:17:26;1.20;99.90
18041;DHT22;9145;48.588;9.250;2023-02-15T02:20:17;1.20;99.90
18041;DHT22;9145;48.588;9.250;2023-02-15T02:23:08;1.20;99.90
18041;DHT22;9145;48.588;9.250;2023-02-15T02:26:10;1.30;99.90
18041;DHT22;9145;48.588;9.250;2023-02-15T02:29:06;1.10;99.90
18041;DHT22;9145;48.588;9.250;2023-02-15T02:31:46;1.00;99.90
18041;DHT22;9145;48.588;9.250;2023-02-15T02:34:18;1.00;99.90
18041;DHT22;9145;48.588;9.250;2023-02-15T02:36:52;1.00;99.90
18041;DHT22;9145;48.588;9.250;2023-02-15T02:39:25;1.00;99.90
18041;DHT22;9145;48.588;9.250;2023-02-15T02:41:58;1.00;99.90
18041;DHT22;9145;48.588;9.250;2023-02-15T02:44:31;1.00;99.90
18041;DHT22;9145;48.588;9.250;2023-02-15T02:47:06;1.10;99.90
18041;DHT22;9145;48.588;9.250;2023-02-15T02:49:37;1.10;99.90
18041;DHT22;9145;48.588;9.250;2023-02-15T02:52:31;1.00;99.90
18041;DHT22;9145;48.588;9.250;2023-02-15T02:54:53;0.90;99.90
18041;DHT22;9145;48.588;9.250;2023-02-15T02:57:23;0.80;99.90
18041;DHT22;9145;48.588;9.250;2023-02-15T02:59:51;0.70;99.90
18041;DHT22;9145;48.588;9.250;2023-02-15T03:02:23;0.70;99.90
18041;DHT22;9145;48.588;9.250;2023-02-15T03:04:57;0.60;99.90
18041;DHT22;9145;48.588;9.250;2023-02-15T03:07:30;0.60;99.90
18041;DHT22;9145;48.588;9.250;2023-02-15T03:09:59;0.60;99.90
18041;DHT22;9145;48.588;9.250;2023-02-15T03:12:28;0.50;99.90
18041;DHT22;9145;48.588;9.250;2023-02-15T03:15:03;0.40;99.90
18041;DHT22;9145;48.588;9.250;2023-02-15T03:17:32;0.40;99.90
18041;DHT22;9145;48.588;9.250;2023-02-15T03:20:03;0.40;99.90
18041;DHT22;9145;48.588;9.250;2023-02-15T03:22:33;0.40;99.90
18041;DHT22;9145;48.588;9.250;2023-02-15T03:25:05;0.40;99.90
18041;DHT22;9145;48.588;9.250;2023-02-15T03:27:36;0.40;99.90
18041;DHT22;9145;48.588;9.250;2023-02-15T03:30:06;0.40;99.90
18041;DHT22;9145;48.588;9.250;2023-02-15T03:32:34;0.30;99.90
18041;DHT22;9145;48.588;9.250;2023-02-15T03:35:06;0.30;99.90
18041;DHT22;9145;48.588;9.250;2023-02-15T03:37:36;0.30;99.90
18041;DHT22;9145;48.588;9.250;2023-02-15T03:40:09;0.30;99.90
18041;DHT22;9145;48.588;9.250;2023-02-15T03:42:58;0.30;99.90
18041;DHT22;9145;48.588;9.250;2023-02-15T03:45:30;0.50;99.90
18041;DHT22;9145;48.588;9.250;2023-02-15T03:48:00;0.60;99.90
18041;DHT22;9145;48.588;9.250;2023-02-15T03:50:30;0.60;99.90
18041;DHT22;9145;48.588;9.250;2023-02-15T03:53:18;0.60;99.90
18041;DHT22;9145;48.588;9.250;2023-02-15T03:55:46;0.60;99.90
18041;DHT22;9145;48.588;9.250;2023-02-15T03:58:13;0.60;99.90
18041;DHT22;9145;48.588;9.250;2023-02-15T04:01:13;0.50;99.90
18041;DHT22;9145;48.588;9.250;2023-02-15T04:04:05;0.50;99.90
18041;DHT22;9145;48.588;9.250;2023-02-15T04:06:35;0.60;99.90
18041;DHT22;9145;48.588;9.250;2023-02-15T04:09:02;0.50;99.90
18041;DHT22;9145;48.588;9.250;2023-02-15T04:11:46;0.40;99.90
18041;DHT22;9145;48.588;9.250;2023-02-15T04:14:13;0.40;99.90
18041;DHT22;9145;48.588;9.250;2023-02-15T04:16:54;0.40;99.90
18041;DHT22;9145;48.588;9.250;2023-02-15T04:19:21;0.40;99.90
18041;DHT22;9145;48.588;9.250;2023-02-15T04:22:06;0.50;99.90
18041;DHT22;9145;48.588;9.250;2023-02-15T04:24:50;0.70;99.90
18041;DHT22;9145;48.588;9.250;2023-02-15T04:27:35;0.70;99.90
18041;DHT22;9145;48.588;9.250;2023-02-15T04:30:02;0.70;99.90
18041;DHT22;9145;48.588;9.250;2023-02-15T04:32:29;0.60;99.90
18041;DHT22;9145;48.588;9.250;2023-02-15T04:34:56;0.60;99.90
18041;DHT22;9145;48.588;9.250;2023-02-15T04:37:24;0.60;99.90
18041;DHT22;9145;48.588;9.250;2023-02-15T04:39:51;0.50;99.90
18041;DHT22;9145;48.588;9.250;2023-02-15T04:42:18;0.50;99.90
18041;DHT22;9145;48.588;9.250;2023-02-15T04:44:44;0.50;99.90
18041;DHT22;9145;48.588;9.250;2023-02-15T04:47:11;0.40;99.90
18041;DHT22;9145;48.588;9.250;2023-02-15T04:49:38;0.50;99.90
18041;DHT22;9145;48.588;9.250;2023-02-15T04:52:05;0.40;99.90
18041;DHT22;9145;48.588;9.250;2023-02-15T04:54:33;0.20;99.90
18041;DHT22;9145;48.588;9.250;2023-02-15T04:57:00;0.20;99.90
18041;DHT22;9145;48.588;9.250;2023-02-15T04:59:27;0.10;99.90
18041;DHT22;9145;48.588;9.250;2023-02-15T05:01:53;0.20;99.90
18041;DHT22;9145;48.588;9.250;2023-02-15T05:04:20;0.20;99.90
18041;DHT22;9145;48.588;9.250;2023-02-15T05:06:47;0.30;99.90
18041;DHT22;9145;48.588;9.250;2023-02-15T05:09:14;0.30;99.90
18041;DHT22;9145;48.588;9.250;2023-02-15T05:11:42;0.30;99.90
18041;DHT22;9145;48.588;9.250;2023-02-15T05:14:09;0.30;99.90
18041;DHT22;9145;48.588;9.250;2023-02-15T05:16:36;0.30;99.90
18041;DHT22;9145;48.588;9.250;2023-02-15T05:19:03;0.20;99.90
18041;DHT22;9145;48.588;9.250;2023-02-15T05:21:31;0.00;99.90
18041;DHT22;9145;48.588;9.250;2023-02-15T05:23:57;-0.10;99.90
18041;DHT22;9145;48.588;9.250;2023-02-15T05:26:25;-0.10;99.90
18041;DHT22;9145;48.588;9.250;2023-02-15T05:29:11;-0.20;99.90
18041;DHT22;9145;48.588;9.250;2023-02-15T05:31:37;-0.10;99.90
18041;DHT22;9145;48.588;9.250;2023-02-15T05:34:04;-0.10;99.90
18041;DHT22;9145;48.588;9.250;2023-02-15T05:36:31;-0.10;99.90
18041;DHT22;9145;48.588;9.250;2023-02-15T05:38:58;-0.10;99.90
18041;DHT22;9145;48.588;9.250;2023-02-15T05:41:25;0.00;99.90
18041;DHT22;9145;48.588;9.250;2023-02-15T05:43:54;0.00;99.90
18041;DHT22;9145;48.588;9.250;2023-02-15T05:46:22;0.00;99.90
18041;DHT22;9145;48.588;9.250;2023-02-15T05:48:49;0.10;99.90
18041;DHT22;9145;48.588;9.250;2023-02-15T05:51:16;0.10;99.90
18041;DHT22;9145;48.588;9.250;2023-02-15T05:53:43;0.10;99.90
18041;DHT22;9145;48.588;9.250;2023-02-15T05:56:10;0.10;99.90
18041;DHT22;9145;48.588;9.250;2023-02-15T05:58:39;0.00;99.90
18041;DHT22;9145;48.588;9.250;2023-02-15T06:01:09;-0.10;99.90
18041;DHT22;9145;48.588;9.250;2023-02-15T06:03:38;-0.10;99.90
18041;DHT22;9145;48.588;9.250;2023-02-15T06:06:05;-0.20;99.90
18041;DHT22;9145;48.588;9.250;2023-02-15T06:08:33;-0.30;99.90
18041;DHT22;9145;48.588;9.250;2023-02-15T06:11:00;-0.30;99.90
18041;DHT22;9145;48.588;9.250;2023-02-15T06:13:27;-0.30;99.90
18041;DHT22;9145;48.588;9.250;2023-02-15T06:15:54;-0.40;99.90
18041;DHT22;9145;48.588;9.250;2023-02-15T06:18:21;-0.40;99.90
18041;DHT22;9145;48.588;9.250;2023-02-15T06:20:49;-0.30;99.90
18041;DHT22;9145;48.588;9.250;2023-02-15T06:23:16;-0.30;99.90
18041;DHT22;9145;48.588;9.250;2023-02-15T06:25:44;-0.20;99.90
18041;DHT22;9145;48.588;9.250;2023-02-15T06:28:11;-0.10;99.90
18041;DHT22;9145;48.588;9.250;2023-02-15T06:30:38;0.00;99.90
18041;DHT22;9145;48.588;9.250;2023-02-15T06:33:05;0.00;99.90
18041;DHT22;9145;48.588;9.250;2023-02-15T06:35:32;-0.10;99.90
18041;DHT22;9145;48.588;9.250;2023-02-15T06:38:00;0.00;99.90
18041;DHT22;9145;48.588;9.250;2023-02-15T06:40:27;-0.10;99.90
18041;DHT22;9145;48.588;9.250;2023-02-15T06:42:54;-0.10;99.90
18041;DHT22;9145;48.588;9.250;2023-02-15T06:45:20;-0.20;99.90
18041;DHT22;9145;48.588;9.250;2023-02-15T06:47:47;-0.20;99.90
18041;DHT22;9145;48.588;9.250;2023-02-15T06:50:14;-0.30;99.90
18041;DHT22;9145;48.588;9.250;2023-02-15T06:52:41;-0.40;99.90
18041;DHT22;9145;48.588;9.250;2023-02-15T06:55:09;-0.30;99.90
18041;DHT22;9145;48.588;9.250;2023-02-15T06:57:36;-0.30;99.90
18041;DHT22;9145;48.588;9.250;2023-02-15T07:00:04;-0.30;99.90
18041;DHT22;9145;48.588;9.250;2023-02-15T07:02:31;-0.30;99.90
18041;DHT22;9145;48.588;9.250;2023-02-15T07:04:58;-0.30;99.90
18041;DHT22;9145;48.588;9.250;2023-02-15T07:07:25;-0.40;99.90
18041;DHT22;9145;48.588;9.250;2023-02-15T07:09:52;-0.40;99.90
18041;DHT22;9145;48.588;9.250;2023-02-15T07:12:20;-0.50;99.90
18041;DHT22;9145;48.588;9.250;2023-02-15T07:15:05;-0.50;99.90
18041;DHT22;9145;48.588;9.250;2023-02-15T07:17:33;-0.50;99.90
18041;DHT22;9145;48.588;9.250;2023-02-15T07:20:00;-0.40;99.90
18041;DHT22;9145;48.588;9.250;2023-02-15T07:22:27;-0.40;99.90
18041;DHT22;9145;48.588;9.250;2023-02-15T07:24:54;-0.40;99.90
18041;DHT22;9145;48.588;9.250;2023-02-15T07:27:22;-0.50;99.90
18041;DHT22;9145;48.588;9.250;2023-02-15T07:29:49;-0.50;99.90
18041;DHT22;9145;48.588;9.250;2023-02-15T07:32:15;-0.50;99.90
18041;DHT22;9145;48.588;9.250;2023-02-15T07:34:42;-0.50;99.90
18041;DHT22;9145;48.588;9.250;2023-02-15T07:37:09;-0.50;99.90
18041;DHT22;9145;48.588;9.250;2023-02-15T07:39:36;-0.50;99.90
18041;DHT22;9145;48.588;9.250;2023-02-15T07:42:03;-0.30;99.90
18041;DHT22;9145;48.588;9.250;2023-02-15T07:44:31;-0.20;99.90
18041;DHT22;9145;48.588;9.250;2023-02-15T07:46:58;-0.10;99.90
18041;DHT22;9145;48.588;9.250;2023-02-15T07:49:25;-0.10;99.90
18041;DHT22;9145;48.588;9.250;2023-02-15T07:51:51;0.00;99.90
18041;DHT22;9145;48.588;9.250;2023-02-15T07:54:18;0.10;99.90
18041;DHT22;9145;48.588;9.250;2023-02-15T07:56:45;0.20;99.90
18041;DHT22;9145;48.588;9.250;2023-02-15T07:59:12;0.30;99.90
18041;DHT22;9145;48.588;9.250;2023-02-15T08:01:40;0.30;99.90
18041;DHT22;9145;48.588;9.250;2023-02-15T08:04:08;0.30;99.90
18041;DHT22;9145;48.588;9.250;2023-02-15T08:06:37;0.40;99.90
18041;DHT22;9145;48.588;9.250;2023-02-15T08:09:05;0.40;99.90
18041;DHT22;9145;48.588;9.250;2023-02-15T08:11:34;0.40;99.90
18041;DHT22;9145;48.588;9.250;2023-02-15T08:14:04;0.50;99.90
18041;DHT22;9145;48.588;9.250;2023-02-15T08:16:34;0.50;99.90
18041;DHT22;9145;48.588;9.250;2023-02-15T08:19:04;0.60;99.90
18041;DHT22;9145;48.588;9.250;2023-02-15T08:21:32;0.70;99.90
18041;DHT22;9145;48.588;9.250;2023-02-15T08:24:00;0.70;99.90
18041;DHT22;9145;48.588;9.250;2023-02-15T08:26:28;0.90;99.90
18041;DHT22;9145;48.588;9.250;2023-02-15T08:28:55;0.90;99.90
18041;DHT22;9145;48.588;9.250;2023-02-15T08:31:22;1.00;99.90
18041;DHT22;9145;48.588;9.250;2023-02-15T08:33:51;1.10;99.90
18041;DHT22;9145;48.588;9.250;2023-02-15T08:36:21;1.20;99.90
18041;DHT22;9145;48.588;9.250;2023-02-15T08:38:49;1.30;99.90
18041;DHT22;9145;48.588;9.250;2023-02-15T08:41:17;1.40;99.90
18041;DHT22;9145;48.588;9.250;2023-02-15T08:43:47;1.70;99.90
18041;DHT22;9145;48.588;9.250;2023-02-15T08:46:15;1.80;99.90
18041;DHT22;9145;48.588;9.250;2023-02-15T08:48:42;2.00;99.90
18041;DHT22;9145;48.588;9.250;2023-02-15T08:51:10;2.10;99.90
18041;DHT22;9145;48.588;9.250;2023-02-15T08:53:40;2.20;99.90
18041;DHT22;9145;48.588;9.250;2023-02-15T08:56:08;2.30;99.90
18041;DHT22;9145;48.588;9.250;2023-02-15T08:58:35;2.30;99.90
18041;DHT22;9145;48.588;9.250;2023-02-15T09:01:08;2.30;99.90
18041;DHT22;9145;48.588;9.250;2023-02-15T09:03:35;2.40;99.90
18041;DHT22;9145;48.588;9.250;2023-02-15T09:06:02;2.40;99.90
18041;DHT22;9145;48.588;9.250;2023-02-15T09:08:29;2.60;99.90
18041;DHT22;9145;48.588;9.250;2023-02-15T09:11:07;2.70;99.90
18041;DHT22;9145;48.588;9.250;2023-02-15T09:13:34;2.70;99.90
18041;DHT22;9145;48.588;9.250;2023-02-15T09:16:02;2.90;99.90
18041;DHT22;9145;48.588;9.250;2023-02-15T09:18:30;3.00;99.90
18041;DHT22;9145;48.588;9.250;2023-02-15T09:20:57;3.30;99.90
18041;DHT22;9145;48.588;9.250;2023-02-15T09:23:29;3.60;99.90
18041;DHT22;9145;48.588;9.250;2023-02-15T09:25:56;3.80;99.90
18041;DHT22;9145;48.588;9.250;2023-02-15T09:28:24;4.00;99.90
18041;DHT22;9145;48.588;9.250;2023-02-15T09:30:51;4.00;99.90
18041;DHT22;9145;48.588;9.250;2023-02-15T09:33:18;4.10;99.90
18041;DHT22;9145;48.588;9.250;2023-02-15T09:35:45;4.20;99.90
18041;DHT22;9145;48.588;9.250;2023-02-15T09:38:12;4.30;99.90
18041;DHT22;9145;48.588;9.250;2023-02-15T09:40:47;4.50;99.90
18041;DHT22;9145;48.588;9.250;2023-02-15T09:43:27;4.70;99.90
18041;DHT22;9145;48.588;9.250;2023-02-15T09:46:11;4.80;99.90
18041;DHT22;9145;48.588;9.250;2023-02-15T09:48:41;4.90;99.90
18041;DHT22;9145;48.588;9.250;2023-02-15T09:54:33;5.10;99.90
18041;DHT22;9145;48.588;9.250;2023-02-15T09:57:10;5.30;99.90
18041;DHT22;9145;48.588;9.250;2023-02-15T09:59:45;5.60;99.90
18041;DHT22;9145;48.588;9.250;2023-02-15T10:02:29;5.70;99.90
18041;DHT22;9145;48.588;9.250;2023-02-15T10:05:11;5.90;99.90
18041;DHT22;9145;48.588;9.250;2023-02-15T10:08:07;5.90;99.90
18041;DHT22;9145;48.588;9.250;2023-02-15T10:10:44;6.00;99.90
18041;DHT22;9145;48.588;9.250;2023-02-15T10:13:27;6.10;99.90
18041;DHT22;9145;48.588;9.250;2023-02-15T10:16:10;6.30;99.90
18041;DHT22;9145;48.588;9.250;2023-02-15T10:18:50;6.30;99.90
18041;DHT22;9145;48.588;9.250;2023-02-15T10:21:28;6.50;99.90
18041;DHT22;9145;48.588;9.250;2023-02-15T10:24:08;6.70;99.90
18041;DHT22;9145;48.588;9.250;2023-02-15T10:26:43;6.70;99.90
18041;DHT22;9145;48.588;9.250;2023-02-15T10:29:20;6.80;99.90
18041;DHT22;9145;48.588;9.250;2023-02-15T10:31:54;7.00;99.90
18041;DHT22;9145;48.588;9.250;2023-02-15T10:34:33;7.10;99.90
18041;DHT22;9145;48.588;9.250;2023-02-15T10:37:17;7.00;99.90
18041;DHT22;9145;48.588;9.250;2023-02-15T10:39:59;7.20;99.90
18041;DHT22;9145;48.588;9.250;2023-02-15T10:42:33;7.40;99.90
18041;DHT22;9145;48.588;9.250;2023-02-15T10:45:11;7.50;99.90
18041;DHT22;9145;48.588;9.250;2023-02-15T10:47:53;7.70;99.90
18041;DHT22;9145;48.588;9.250;2023-02-15T10:50:29;7.90;99.90
18041;DHT22;9145;48.588;9.250;2023-02-15T10:53:11;7.80;99.90
18041;DHT22;9145;48.588;9.250;2023-02-15T10:55:50;7.90;99.90
18041;DHT22;9145;48.588;9.250;2023-02-15T10:58:29;8.00;99.90
18041;DHT22;9145;48.588;9.250;2023-02-15T11:01:05;8.20;99.90
18041;DHT22;9145;48.588;9.250;2023-02-15T11:03:50;8.30;99.90
18041;DHT22;9145;48.588;9.250;2023-02-15T11:06:21;8.40;99.90
18041;DHT22;9145;48.588;9.250;2023-02-15T11:08:50;8.50;99.90
18041;DHT22;9145;48.588;9.250;2023-02-15T11:11:22;8.60;99.90
18041;DHT22;9145;48.588;9.250;2023-02-15T11:13:56;8.70;99.90
18041;DHT22;9145;48.588;9.250;2023-02-15T11:16:25;8.80;99.90
18041;DHT22;9145;48.588;9.250;2023-02-15T11:18:57;8.90;99.90
18041;DHT22;9145;48.588;9.250;2023-02-15T11:21:29;9.20;99.90
18041;DHT22;9145;48.588;9.250;2023-02-15T11:24:00;9.40;99.90
18041;DHT22;9145;48.588;9.250;2023-02-15T11:26:31;9.50;99.90
18041;DHT22;9145;48.588;9.250;2023-02-15T11:29:06;9.90;99.90
18041;DHT22;9145;48.588;9.250;2023-02-15T11:31:41;10.20;99.90
18041;DHT22;9145;48.588;9.250;2023-02-15T11:34:17;10.50;99.90
18041;DHT22;9145;48.588;9.250;2023-02-15T11:36:47;10.80;99.90
18041;DHT22;9145;48.588;9.250;2023-02-15T11:39:17;10.70;99.90
18041;DHT22;9145;48.588;9.250;2023-02-15T11:41:47;10.90;99.90
18041;DHT22;9145;48.588;9.250;2023-02-15T11:44:21;10.90;99.90
18041;DHT22;9145;48.588;9.250;2023-02-15T11:46:48;11.00;99.90
18041;DHT22;9145;48.588;9.250;2023-02-15T11:49:22;10.80;99.90
18041;DHT22;9145;48.588;9.250;2023-02-15T11:51:50;10.90;99.90
18041;DHT22;9145;48.588;9.250;2023-02-15T11:54:18;11.10;99.90
18041;DHT22;9145;48.588;9.250;2023-02-15T11:56:46;11.20;99.90
18041;DHT22;9145;48.588;9.250;2023-02-15T11:59:18;11.30;99.90
18041;DHT22;9145;48.588;9.250;2023-02-15T12:01:48;11.40;99.90
18041;DHT22;9145;48.588;9.250;2023-02-15T12:04:20;11.50;99.90
18041;DHT22;9145;48.588;9.250;2023-02-15T12:06:53;11.50;99.90
18041;DHT22;9145;48.588;9.250;2023-02-15T12:09:29;11.60;99.90
18041;DHT22;9145;48.588;9.250;2023-02-15T12:12:19;11.80;99.90
18041;DHT22;9145;48.588;9.250;2023-02-15T12:14:47;12.10;99.90
18041;DHT22;9145;48.588;9.250;2023-02-15T12:17:16;12.30;99.90
18041;DHT22;9145;48.588;9.250;2023-02-15T12:19:44;12.50;99.90
18041;DHT22;9145;48.588;9.250;2023-02-15T12:22:20;12.60;99.90
18041;DHT22;9145;48.588;9.250;2023-02-15T12:24:50;12.60;99.90
18041;DHT22;9145;48.588;9.250;2023-02-15T12:27:19;12.70;99.90
18041;DHT22;9145;48.588;9.250;2023-02-15T12:29:49;12.80;99.90
18041;DHT22;9145;48.588;9.250;2023-02-15T12:32:19;13.10;99.90
18041;DHT22;9145;48.588;9.250;2023-02-15T12:34:50;13.20;99.90
18041;DHT22;9145;48.588;9.250;2023-02-15T12:37:21;13.30;99.90
18041;DHT22;9145;48.588;9.250;2023-02-15T12:39:52;13.30;99.90
18041;DHT22;9145;48.588;9.250;2023-02-15T12:42:20;13.40;99.90
18041;DHT22;9145;48.588;9.250;2023-02-15T12:44:56;13.40;99.90
18041;DHT22;9145;48.588;9.250;2023-02-15T12:47:23;13.50;99.90
18041;DHT22;9145;48.588;9.250;2023-02-15T12:50:14;13.60;99.90
18041;DHT22;9145;48.588;9.250;2023-02-15T12:52:48;13.60;99.90
18041;DHT22;9145;48.588;9.250;2023-02-15T12:55:22;13.50;99.90
18041;DHT22;9145;48.588;9.250;2023-02-15T12:57:49;13.70;99.90
18041;DHT22;9145;48.588;9.250;2023-02-15T13:00:31;13.90;99.90
18041;DHT22;9145;48.588;9.250;2023-02-15T13:02:59;14.10;99.90
18041;DHT22;9145;48.588;9.250;2023-02-15T13:05:33;14.30;99.90
18041;DHT22;9145;48.588;9.250;2023-02-15T13:08:02;14.40;99.90
18041;DHT22;9145;48.588;9.250;2023-02-15T13:10:33;14.30;99.90
18041;DHT22;9145;48.588;9.250;2023-02-15T13:13:01;14.40;99.90
18041;DHT22;9145;48.588;9.250;2023-02-15T13:15:37;14.50;99.90
18041;DHT22;9145;48.588;9.250;2023-02-15T13:18:09;14.60;99.90
18041;DHT22;9145;48.588;9.250;2023-02-15T13:20:38;14.70;99.90
18041;DHT22;9145;48.588;9.250;2023-02-15T13:23:17;14.60;99.90
18041;DHT22;9145;48.588;9.250;2023-02-15T13:25:48;14.60;99.90
18041;DHT22;9145;48.588;9.250;2023-02-15T13:28:18;14.70;99.90
18041;DHT22;9145;48.588;9.250;2023-02-15T13:30:47;15.00;99.90
18041;DHT22;9145;48.588;9.250;2023-02-15T13:33:21;15.00;99.90
18041;DHT22;9145;48.588;9.250;2023-02-15T13:36:00;15.20;99.90
18041;DHT22;9145;48.588;9.250;2023-02-15T13:38:45;15.50;99.90
18041;DHT22;9145;48.588;9.250;2023-02-15T13:41:15;15.60;99.90
18041;DHT22;9145;48.588;9.250;2023-02-15T13:43:50;15.60;99.90
18041;DHT22;9145;48.588;9.250;2023-02-15T13:46:28;15.70;99.90
18041;DHT22;9145;48.588;9.250;2023-02-15T13:49:08;15.90;99.90
18041;DHT22;9145;48.588;9.250;2023-02-15T13:51:43;16.00;99.90
18041;DHT22;9145;48.588;9.250;2023-02-15T13:54:32;15.90;99.90
18041;DHT22;9145;48.588;9.250;2023-02-15T13:57:15;15.90;99.90
18041;DHT22;9145;48.588;9.250;2023-02-15T13:59:58;16.00;99.90
18041;DHT22;9145;48.588;9.250;2023-02-15T14:02:43;16.10;99.90
18041;DHT22;9145;48.588;9.250;2023-02-15T14:05:28;16.30;99.90
18041;DHT22;9145;48.588;9.250;2023-02-15T14:08:06;16.60;99.90
18041;DHT22;9145;48.588;9.250;2023-02-15T14:10:47;16.70;99.90
18041;DHT22;9145;48.588;9.250;2023-02-15T14:16:17;17.10;99.90
18041;DHT22;9145;48.588;9.250;2023-02-15T14:18:50;17.10;99.90
18041;DHT22;9145;48.588;9.250;2023-02-15T14:21:24;17.10;99.90
18041;DHT22;9145;48.588;9.250;2023-02-15T14:24:02;17.20;99.60
18041;DHT22;9145;48.588;9.250;2023-02-15T14:26:40;17.30;98.80
18041;DHT22;9145;48.588;9.250;2023-02-15T14:29:19;17.40;98.70
18041;DHT22;9145;48.588;9.250;2023-02-15T14:31:50;17.50;98.20
18041;DHT22;9145;48.588;9.250;2023-02-15T14:34:22;17.60;97.30
18041;DHT22;9145;48.588;9.250;2023-02-15T14:36:51;17.40;97.10
18041;DHT22;9145;48.588;9.250;2023-02-15T14:39:27;17.30;96.60
18041;DHT22;9145;48.588;9.250;2023-02-15T14:42:18;17.40;96.40
18041;DHT22;9145;48.588;9.250;2023-02-15T14:44:51;17.50;96.00
18041;DHT22;9145;48.588;9.250;2023-02-15T14:47:25;17.60;96.20
18041;DHT22;9145;48.588;9.250;2023-02-15T14:49:53;17.60;95.90
18041;DHT22;9145;48.588;9.250;2023-02-15T14:52:20;17.70;95.30
18041;DHT22;9145;48.588;9.250;2023-02-15T14:54:58;17.50;95.30
18041;DHT22;9145;48.588;9.250;2023-02-15T14:57:30;17.80;95.50
18041;DHT22;9145;48.588;9.250;2023-02-15T14:59:59;17.80;95.10
18041;DHT22;9145;48.588;9.250;2023-02-15T15:02:42;18.00;94.80
18041;DHT22;9145;48.588;9.250;2023-02-15T15:05:14;18.30;94.50
18041;DHT22;9145;48.588;9.250;2023-02-15T15:07:46;18.60;94.60
18041;DHT22;9145;48.588;9.250;2023-02-15T15:10:35;18.90;93.80
18041;DHT22;9145;48.588;9.250;2023-02-15T15:13:37;19.10;93.80
18041;DHT22;9145;48.588;9.250;2023-02-15T15:16:30;19.10;92.90
18041;DHT22;9145;48.588;9.250;2023-02-15T15:18:58;19.30;92.50
18041;DHT22;9145;48.588;9.250;2023-02-15T15:21:51;19.60;91.80
18041;DHT22;9145;48.588;9.250;2023-02-15T15:24:45;19.60;91.40
18041;DHT22;9145;48.588;9.250;2023-02-15T15:27:46;19.80;91.70
18041;DHT22;9145;48.588;9.250;2023-02-15T15:42:59;20.70;89.70
18041;DHT22;9145;48.588;9.250;2023-02-15T15:48:33;21.00;90.10
18041;DHT22;9145;48.588;9.250;2023-02-15T15:51:06;21.00;89.10
18041;DHT22;9145;48.588;9.250;2023-02-15T15:53:40;21.30;88.20
18041;DHT22;9145;48.588;9.250;2023-02-15T15:56:13;21.60;87.60
18041;DHT22;9145;48.588;9.250;2023-02-15T15:58:46;21.30;86.90
18041;DHT22;9145;48.588;9.250;2023-02-15T16:01:15;21.30;86.90
18041;DHT22;9145;48.588;9.250;2023-02-15T16:03:50;21.40;86.10
18041;DHT22;9145;48.588;9.250;2023-02-15T16:06:32;21.40;87.20
18041;DHT22;9145;48.588;9.250;2023-02-15T16:09:11;21.50;84.60
18041;DHT22;9145;48.588;9.250;2023-02-15T16:11:38;21.40;84.60
18041;DHT22;9145;48.588;9.250;2023-02-15T16:14:14;21.20;85.10
18041;DHT22;9145;48.588;9.250;2023-02-15T16:16:48;21.00;84.60
18041;DHT22;9145;48.588;9.250;2023-02-15T16:19:20;20.60;85.40
18041;DHT22;9145;48.588;9.250;2023-02-15T16:21:48;20.20;86.30
18041;DHT22;9145;48.588;9.250;2023-02-15T16:27:26;19.20;88.70
18041;DHT22;9145;48.588;9.250;2023-02-15T16:29:56;18.60;89.30
18041;DHT22;9145;48.588;9.250;2023-02-15T16:32:25;18.10;90.50
18041;DHT22;9145;48.588;9.250;2023-02-15T16:34:54;17.40;91.70
18041;DHT22;9145;48.588;9.250;2023-02-15T16:37:23;16.90;92.00
18041;DHT22;9145;48.588;9.250;2023-02-15T16:39:52;16.40;92.80
18041;DHT22;9145;48.588;9.250;2023-02-15T16:42:20;15.90;93.70
18041;DHT22;9145;48.588;9.250;2023-02-15T16:44:50;15.60;94.80
18041;DHT22;9145;48.588;9.250;2023-02-15T16:47:22;15.20;95.60
18041;DHT22;9145;48.588;9.250;2023-02-15T16:49:52;14.90;96.10